ADDS METAR Data INFO
IDs: Format: Raw Decoded Include TAF

Data at: 0353 UTC 18 Oct 2017

KSYF 180335Z AUTO 18013KT 10SM CLR 14/M03 A3001 RMK AO2 T01371026
KSYF 180315Z AUTO 17013KT 10SM CLR 15/M02 A3001 RMK AO2 T01451025
KSYF 180255Z AUTO 16013KT 10SM CLR 15/M03 A3001 RMK AO2 T01501026
KSYF 180235Z AUTO 16013KT 10SM CLR 15/M03 A3001 RMK AO2 T01511026
KSYF 180215Z AUTO 16013KT 10SM CLR 16/M03 A3002 RMK AO2 T01581029
KSYF 180155Z AUTO 16014KT 10SM CLR 16/M03 A3002 RMK AO2 T01631030
KSYF 180135Z AUTO 16013KT 10SM CLR 17/M03 A3002 RMK AO2 T01661030
KSYF 180115Z AUTO 16012KT 10SM CLR 18/M03 A3002 RMK AO2 T01761034
KSYF 180055Z AUTO 16013KT 10SM CLR 18/M03 A3002 RMK AO2 T01751031
KSYF 180035Z AUTO 16012KT 10SM CLR 17/M03 A3002 RMK AO2 T01711030
KSYF 180015Z AUTO 16011KT 10SM CLR 17/M02 A3002 RMK AO2 T01691025
KSYF 172355Z AUTO 16010KT 10SM CLR 20/M04 A3002 RMK AO2 T01971037 10267 20197
KSYF 172335Z AUTO 16009KT 10SM CLR 22/M05 A3002 RMK AO2 T02211052
KSYF 172315Z AUTO 16007KT 10SM CLR 24/M06 A3003 RMK AO2 T02411058
KSYF 172255Z AUTO 16007KT 10SM CLR 25/M07 A3003 RMK AO2 T02531066
KSYF 172235Z AUTO 19006KT 10SM CLR 26/M08 A3003 RMK AO2 T02601079
KSYF 172215Z AUTO 18004KT 10SM CLR 26/M09 A3004 RMK AO2 T02631087
KSYF 172155Z AUTO 20005KT 10SM CLR 27/M08 A3004 RMK AO2 T02661081
KSYF 172135Z AUTO 00000KT 10SM CLR 27/M08 A3005 RMK AO2 T02671079
KSYF 172115Z AUTO 00000KT 10SM CLR 27/M08 A3005 RMK AO2 T02651082
KSYF 172055Z AUTO 10004KT 10SM CLR 26/M09 A3005 RMK AO2 T02631087
KSYF 172035Z AUTO 00000KT 10SM CLR 26/M08 A3006 RMK AO2 T02621084
KSYF 172015Z AUTO 19004KT 10SM CLR 26/M07 A3007 RMK AO2 T02631070
KSYF 171955Z AUTO 15006KT 10SM CLR 26/M07 A3008 RMK AO2 T02601074
KSYF 171935Z AUTO 13004KT 10SM CLR 26/M07 A3009 RMK AO2 T02631073
KSYF 171915Z AUTO 00000KT 10SM CLR 25/M08 A3010 RMK AO2 T02491078
KSYF 171855Z AUTO 15005KT 10SM CLR 25/M07 A3011 RMK AO2 T02541072
KSYF 171835Z AUTO 14006KT 10SM CLR 25/M06 A3013 RMK AO2 T02451056
KSYF 171815Z AUTO 14004KT 10SM CLR 24/M07 A3014 RMK AO2 T02411066
KSYF 171755Z AUTO 13005KT 10SM CLR 23/M05 A3015 RMK AO2 T02321050 10232 20002
KSYF 171735Z AUTO 15005KT 10SM CLR 22/M04 A3016 RMK AO2 T02201039
KSYF 171715Z AUTO 13004KT 10SM CLR 21/M03 A3017 RMK AO2 T02051030
KSYF 171655Z AUTO 00000KT 10SM 19/M03 A3018 RMK AO2 T01901032
KSYF 171635Z AUTO 00000KT 10SM 18/M03 A3018 RMK AO2 T01751028
KSYF 171615Z AUTO 00000KT 10SM 16/M01 A3019 RMK AO2 T01601015
KSYF 171555Z AUTO 00000KT 10SM 15/M01 A3019 RMK AO2 T01451013
KSYF 171535Z AUTO 00000KT 10SM 13/M02 A3019 RMK AO2 T01261024
KSYF 171515Z AUTO 00000KT 10SM 10/M03 A3020 RMK AO2 T01031026
KSYF 171455Z AUTO 22003KT 10SM 07/M01 A3020 RMK AO2 T00741006
KSYF 171435Z AUTO 25005KT 10SM 05/M01 A3020 RMK AO2 T00531006
KSYF 171415Z AUTO 25006KT 10SM 04/M01 A3020 RMK AO2 T00431010
KSYF 171355Z AUTO 24005KT 10SM 03/M01 A3019 RMK AO2 T00261014
KSYF 171335Z AUTO 24005KT 10SM 01/M02 A3019 RMK AO2 T00111022
KSYF 171315Z AUTO 24005KT 10SM 01/M02 A3019 RMK AO2 T00071025
KSYF 171255Z AUTO 23003KT 10SM 02/M02 A3019 RMK AO2 T00151023
KSYF 171235Z AUTO 23006KT 10SM 00/M02 A3019 RMK AO2 T00031023
KSYF 171215Z AUTO 24008KT 10SM 01/M02 A3018 RMK AO2 T00131020
KSYF 171155Z AUTO 24008KT 10SM 01/M02 A3018 RMK AO2 T00141020 10062 20012
KSYF 171135Z AUTO 23008KT 10SM 02/M02 A3018 RMK AO2 T00171020
KSYF 171115Z AUTO 23008KT 10SM 02/M02 A3018 RMK AO2 T00211020
KSYF 171055Z AUTO 23007KT 10SM 02/M02 A3018 RMK AO2 T00201021
KSYF 171035Z AUTO 23007KT 10SM 03/M02 A3018 RMK AO2 T00251020
KSYF 171015Z AUTO 23008KT 10SM 03/M02 A3018 RMK AO2 T00301020
KSYF 170955Z AUTO 23007KT 10SM 03/M02 A3017 RMK AO2 T00301020
KSYF 170935Z AUTO 23005KT 10SM 03/M02 A3017 RMK AO2 T00341024
KSYF 170915Z AUTO 24004KT 10SM 03/M02 A3017 RMK AO2 T00291023
KSYF 170855Z AUTO 24007KT 10SM 04/M02 A3017 RMK AO2 T00361022
KSYF 170835Z AUTO 23008KT 10SM 04/M02 A3018 RMK AO2 T00361020
KSYF 170815Z AUTO 23007KT 10SM 04/M02 A3018 RMK AO2 T00381016
KSYF 170755Z AUTO 24009KT 10SM 03/M01 A3017 RMK AO2 T00341015
KSYF 170735Z AUTO 24009KT 10SM 04/M01 A3017 RMK AO2 T00431015
KSYF 170715Z AUTO 24008KT 10SM 05/M01 A3017 RMK AO2 T00451012
KSYF 170655Z AUTO 24006KT 10SM 05/M01 A3017 RMK AO2 T00511010
KSYF 170635Z AUTO 23008KT 10SM 05/00 A3017 RMK AO2 T00451005
KSYF 170615Z AUTO 23009KT 10SM 05/00 A3016 RMK AO2 T00511002
KSYF 170555Z AUTO 25006KT 10SM 06/00 A3016 RMK AO2 T00630000 10201 20060 402701013
KSYF 170535Z AUTO 23007KT 10SM 06/00 A3016 RMK AO2 T00630001
KSYF 170515Z AUTO 23009KT 10SM 07/00 A3016 RMK AO2 T00700004
KSYF 170455Z AUTO 23008KT 10SM 07/01 A3016 RMK AO2 T00730007
KSYF 170435Z AUTO 24008KT 10SM 08/01 A3016 RMK AO2 T00790009
KSYF 170415Z AUTO 23008KT 10SM 07/01 A3016 RMK AO2 T00680011
KSYF 170355Z AUTO 23003KT 10SM 08/01 A3016 RMK AO2 T00770009
KSYF 170335Z AUTO 24004KT 10SM 09/01 A3015 RMK AO2 T00870007
KSYF 170315Z AUTO 23004KT 10SM 10/01 A3014 RMK AO2 T01030008
KSYF 170255Z AUTO 22008KT 10SM 12/01 A3014 RMK AO2 T01150009
KSYF 170235Z AUTO 23007KT 10SM 11/01 A3014 RMK AO2 T01100011
KSYF 170215Z AUTO 21005KT 10SM 12/01 A3014 RMK AO2 T01200013
KSYF 170155Z AUTO 21006KT 10SM 13/01 A3014 RMK AO2 T01260014
KSYF 170135Z AUTO 17009KT 10SM 14/02 A3013 RMK AO2 T01350015
KSYF 170115Z AUTO 15007KT 10SM 15/01 A3013 RMK AO2 T01450011
KSYF 170055Z AUTO 15009KT 10SM 15/01 A3012 RMK AO2 T01530013
KSYF 170035Z AUTO 12005KT 10SM 16/02 A3012 RMK AO2 T01600018
KSYF 170015Z AUTO 08003KT 7SM 18/01 A3012 RMK AO2 T01820011
KSYF 162355Z AUTO 00000KT 10SM 20/01 A3012 RMK AO2 T01960010 10270 20185
KSYF 162335Z AUTO 14008KT 7SM 20/02 A3011 RMK AO2 T01960015
KSYF 162315Z AUTO 15009KT 10SM 21/01 A3010 RMK AO2 T02100008
KSYF 162255Z AUTO 15009KT 10SM 22/00 A3010 RMK AO2 T02241001
KSYF 162235Z AUTO 15010KT 10SM 25/M02 A3010 RMK AO2 T02541024
KSYF 162215Z AUTO 18003KT 10SM 26/M07 A3011 RMK AO2 T02631067
KSYF 162155Z AUTO 22003KT 7SM 27/M06 A3011 RMK AO2 T02671065
KSYF 162135Z AUTO 24005KT 10SM 27/M06 A3011 RMK AO2 T02671061
KSYF 162115Z AUTO 16009KT 10SM 26/M04 A3011 RMK AO2 T02611043
KSYF 162055Z AUTO 19010G16KT 10SM 26/M06 A3012 RMK AO2 T02641058
KSYF 162035Z AUTO 19010KT 7SM 27/M06 A3012 RMK AO2 T02661062
KSYF 162015Z AUTO 21014KT 10SM 26/M07 A3013 RMK AO2 T02561071
KSYF 161955Z AUTO 19013KT 7SM 26/M06 A3014 RMK AO2 T02611057
KSYF 161935Z AUTO 18013KT 10SM 25/M05 A3015 RMK AO2 T02461050
KSYF 161915Z AUTO 18013G18KT 10SM 24/M06 A3016 RMK AO2 T02431061
KSYF 161855Z AUTO 21013G18KT 10SM 24/M07 A3018 RMK AO2 T02441069
KSYF 161835Z AUTO 21017G20KT 10SM 25/M07 A3019 RMK AO2 T02481072
KSYF 161815Z AUTO 21014G19KT 10SM 25/M06 A3020 RMK AO2 T02531065
KSYF 161755Z AUTO 20012G21KT 10SM 26/M05 A3021 RMK AO2 T02551054 10255 21013
KSYF 161735Z AUTO 21014G21KT 10SM 25/M06 A3023 RMK AO2 T02491063
KSYF 161715Z AUTO 21014G19KT 10SM 24/M07 A3023 RMK AO2 T02411068
KSYF 161655Z AUTO 21015G18KT 10SM 22/M05 A3023 RMK AO2 T02181052
KSYF 161635Z AUTO 00000KT 10SM 17/01 A3025 RMK AO2 T01670013
KSYF 161615Z AUTO 00000KT 10SM 15/01 A3026 RMK AO2 T01480014
KSYF 161555Z AUTO 00000KT 10SM 14/01 A3028 RMK AO2 T01370008